Time;durP1;ratioP1;P1;durP2;ratioP2;P2;SDS_P1;SDS_P2;PMS_P1;PMS_P2;Temp;Humidity;BMP_temperature;BMP_pressure;BME280_temperature;BME280_humidity;BME280_pressure;Samples;Min_cycle;Max_cycle;Signal;HPM_P1;HPM_P2
2023/01/16 00:01:29;;;;;;;9.43;6.63;;;;;;;16.46;55.56;99569.75;5075337;28;20115;-56
2023/01/16 00:03:57;;;;;;;9.52;6.60;;;;;;;16.43;55.60;99567.38;5074055;28;20135;-55
2023/01/16 00:06:27;;;;;;;9.95;6.63;;;;;;;16.40;55.62;99567.63;5075184;28;20053;-59
2023/01/16 00:08:55;;;;;;;9.38;6.60;;;;;;;16.37;55.48;99562.56;5075243;28;20044;-57
2023/01/16 00:11:23;;;;;;;8.75;6.38;;;;;;;16.34;55.56;99551.25;5075048;28;20119;-57
2023/01/16 00:13:52;;;;;;;9.88;6.95;;;;;;;16.31;55.48;99549.69;5075063;28;20045;-57
2023/01/16 00:16:21;;;;;;;10.02;6.85;;;;;;;16.30;55.65;99556.03;5075017;28;20048;-58
2023/01/16 00:18:49;;;;;;;8.75;6.35;;;;;;;16.26;55.49;99554.66;5075068;28;20041;-57
2023/01/16 00:21:19;;;;;;;8.93;6.65;;;;;;;16.22;55.76;99559.50;5075010;28;20405;-57
2023/01/16 00:23:49;;;;;;;8.30;6.10;;;;;;;16.20;55.63;99557.91;5074955;28;20044;-57
2023/01/16 00:26:17;;;;;;;8.18;6.00;;;;;;;16.12;55.75;99541.69;5074855;28;20045;-57
2023/01/16 00:28:45;;;;;;;10.13;6.22;;;;;;;16.15;55.84;99544.06;5074741;28;20480;-56
2023/01/16 00:31:13;;;;;;;9.45;6.25;;;;;;;16.13;55.82;99543.38;5074868;28;20044;-56
2023/01/16 00:33:42;;;;;;;9.77;6.43;;;;;;;16.11;55.70;99548.00;5074768;28;20044;-57
2023/01/16 00:36:11;;;;;;;8.75;6.03;;;;;;;16.08;55.82;99551.84;5074863;28;20056;-56
2023/01/16 00:38:39;;;;;;;9.38;6.00;;;;;;;16.06;55.90;99550.31;5074801;28;20396;-56
2023/01/16 00:41:09;;;;;;;9.93;6.50;;;;;;;16.02;55.72;99545.22;5074800;28;20056;-58
2023/01/16 00:43:37;;;;;;;9.25;6.07;;;;;;;15.98;55.84;99543.81;5074701;28;20051;-57
2023/01/16 00:46:05;;;;;;;8.65;6.13;;;;;;;15.96;55.96;99529.66;5074591;28;20051;-55
2023/01/16 00:48:33;;;;;;;8.38;5.90;;;;;;;15.95;55.77;99535.19;5074638;28;20106;-56
2023/01/16 00:51:02;;;;;;;10.18;6.45;;;;;;;15.91;55.95;99531.06;5074496;28;20052;-56
2023/01/16 00:53:30;;;;;;;8.88;6.00;;;;;;;15.90;56.03;99542.81;5074273;28;20048;-56
2023/01/16 00:55:58;;;;;;;7.80;5.70;;;;;;;15.87;55.94;99535.03;5074479;28;20514;-56
2023/01/16 00:58:28;;;;;;;9.02;6.60;;;;;;;15.85;55.90;99537.88;5074541;28;20106;-58
2023/01/16 01:00:56;;;;;;;9.20;5.88;;;;;;;15.81;56.02;99528.38;5073897;28;20045;-57
2023/01/16 01:03:24;;;;;;;8.50;5.85;;;;;;;15.80;55.99;99524.00;5072984;28;20428;-57
2023/01/16 01:05:52;;;;;;;8.68;5.78;;;;;;;15.78;55.90;99526.00;5074281;28;20044;-57
2023/01/16 01:08:20;;;;;;;8.55;5.75;;;;;;;15.76;56.11;99524.44;5074228;28;20050;-55
2023/01/16 01:10:49;;;;;;;9.77;6.78;;;;;;;15.74;55.97;99521.91;5074185;28;20048;-57
2023/01/16 01:13:17;;;;;;;8.77;6.35;;;;;;;15.71;56.20;99528.41;5074085;28;20119;-57
2023/01/16 01:15:47;;;;;;;8.18;6.03;;;;;;;15.69;56.05;99524.16;5074098;28;20041;-57
2023/01/16 01:18:15;;;;;;;8.52;5.85;;;;;;;15.64;55.98;99510.31;5074081;28;20094;-57
2023/01/16 01:20:43;;;;;;;8.77;6.00;;;;;;;15.61;56.12;99510.56;5073985;28;20124;-56
2023/01/16 01:23:11;;;;;;;8.07;5.68;;;;;;;15.64;56.11;99521.06;5074101;28;20486;-56
2023/01/16 01:25:40;;;;;;;8.23;5.97;;;;;;;15.62;56.07;99512.28;5074015;28;20443;-57
2023/01/16 01:28:08;;;;;;;7.85;5.47;;;;;;;15.61;56.22;99521.31;5073790;28;20082;-55
2023/01/16 01:30:36;;;;;;;7.93;5.90;;;;;;;15.59;56.17;99520.59;5073816;28;20048;-56
2023/01/16 01:33:06;;;;;;;8.48;6.15;;;;;;;15.56;56.10;99502.06;5073618;28;20044;-54
2023/01/16 01:35:34;;;;;;;8.10;5.60;;;;;;;15.53;56.05;99499.66;5073656;28;20681;-55
2023/01/16 01:38:03;;;;;;;7.90;5.57;;;;;;;15.52;56.30;99490.75;5073636;28;20102;-57
2023/01/16 01:40:33;;;;;;;8.85;6.00;;;;;;;15.50;56.24;99476.59;5073636;28;20044;-56
2023/01/16 01:43:01;;;;;;;8.68;5.60;;;;;;;15.48;56.19;99473.22;5072229;28;20102;-55
2023/01/16 01:45:31;;;;;;;7.70;5.35;;;;;;;15.46;56.19;99489.47;5073541;28;20044;-56
2023/01/16 01:48:14;;;;;;;8.88;5.78;;;;;;;15.46;56.12;99496.69;5073346;28;20051;-59
2023/01/16 01:50:47;;;;;;;7.75;5.57;;;;;;;15.44;56.14;99491.47;5072259;28;20102;-57
2023/01/16 01:53:19;;;;;;;8.27;5.63;;;;;;;15.42;56.33;99496.13;5073339;28;20094;-57
2023/01/16 01:55:49;;;;;;;8.57;6.10;;;;;;;15.38;56.22;99494.72;5072023;28;20301;-56
2023/01/16 01:58:22;;;;;;;7.63;5.45;;;;;;;15.38;56.27;99502.78;5073133;28;20051;-58
2023/01/16 02:00:53;;;;;;;;;;;;;;;15.35;56.13;99500.38;5073588;28;20044;-56
2023/01/16 02:03:26;;;;;;;8.63;5.70;;;;;;;15.36;56.07;99498.53;5073290;28;19924;-57
2023/01/16 02:05:58;;;;;;;9.05;5.72;;;;;;;15.33;56.16;99491.59;5073050;28;20041;-57
2023/01/16 02:08:31;;;;;;;7.90;5.70;;;;;;;15.32;56.10;99489.88;5073067;28;20048;-56
2023/01/16 02:11:07;;;;;;;8.10;5.45;;;;;;;15.31;55.90;99493.56;5072814;28;20041;-57
2023/01/16 02:13:38;;;;;;;7.60;5.38;;;;;;;15.29;55.87;99484.81;5072347;28;20562;-57
2023/01/16 02:22:12;;;;;;;7.50;4.72;;;;;;;15.24;56.08;99479.00;5072757;28;20081;-55
2023/01/16 02:25:10;;;;;;;8.63;5.68;;;;;;;15.22;55.86;99467.53;5072632;28;20055;-57
2023/01/16 02:28:13;;;;;;;7.78;5.07;;;;;;;15.20;56.11;99461.47;5072461;28;20056;-57
2023/01/16 02:31:14;;;;;;;8.93;5.75;;;;;;;15.17;56.04;99453.72;5060182;28;20087;-57
2023/01/16 02:33:59;;;;;;;7.63;5.07;;;;;;;15.15;56.00;99450.28;5070318;28;20048;-57
2023/01/16 02:36:37;;;;;;;7.55;5.20;;;;;;;15.13;56.02;99450.44;5072509;28;20048;-57
2023/01/16 02:39:16;;;;;;;7.80;5.43;;;;;;;15.13;55.92;99452.28;5071159;28;20052;-58
2023/01/16 02:41:51;;;;;;;7.40;5.20;;;;;;;15.10;55.94;99442.66;5072323;28;20484;-56
2023/01/16 02:44:29;;;;;;;7.47;4.90;;;;;;;15.10;55.98;99442.66;5072320;28;20051;-55
2023/01/16 02:47:15;;;;;;;7.18;4.97;;;;;;;15.10;55.91;99436.44;5072298;28;20079;-57
2023/01/16 02:49:50;;;;;;;8.13;5.55;;;;;;;15.06;55.94;99433.22;5072451;28;20052;-57
2023/01/16 02:52:27;;;;;;;8.55;5.70;;;;;;;15.06;56.15;99432.34;5072251;28;20086;-57
2023/01/16 02:55:00;;;;;;;9.00;5.72;;;;;;;15.04;56.19;99432.47;5072065;28;20485;-58
2023/01/16 02:57:32;;;;;;;7.50;5.38;;;;;;;15.03;56.11;99443.38;5072133;28;20041;-57
2023/01/16 03:00:01;;;;;;;7.55;5.78;;;;;;;14.97;56.18;99427.81;5072252;28;20041;-56
2023/01/16 03:02:29;;;;;;;7.78;5.35;;;;;;;15.00;55.96;99430.22;5072126;28;20086;-58
2023/01/16 03:04:58;;;;;;;7.57;4.88;;;;;;;14.96;55.93;99423.41;5072093;28;20051;-56
2023/01/16 03:08:09;;;;;;;7.65;4.90;;;;;;;14.94;56.11;99422.72;5071968;28;20047;-56
2023/01/16 03:10:53;;;;;;;7.45;5.15;;;;;;;14.96;56.14;99426.09;5072009;28;20493;-56
2023/01/16 03:13:37;;;;;;;7.00;4.85;;;;;;;14.92;56.12;99412.13;5071864;28;20136;-57
2023/01/16 03:16:14;;;;;;;7.65;5.05;;;;;;;14.93;55.86;99402.22;5071916;28;20056;-57
2023/01/16 03:18:50;;;;;;;9.13;5.93;;;;;;;14.89;55.76;99385.56;5071980;28;20051;-56
2023/01/16 03:21:30;;;;;;;7.43;4.97;;;;;;;14.87;56.31;99372.28;5070613;28;20045;-58
2023/01/16 03:24:04;;;;;;;8.23;5.38;;;;;;;14.86;56.11;99384.00;5071631;28;20120;-57
2023/01/16 03:26:37;;;;;;;8.63;5.13;;;;;;;14.85;55.93;99379.59;5071835;28;20047;-57
2023/01/16 03:29:09;;;;;;;;;;;;;;;14.84;56.17;99372.53;5072107;28;20128;-56
2023/01/16 03:31:43;;;;;;;8.13;5.22;;;;;;;14.81;56.04;99372.84;5071780;28;19928;-57
2023/01/16 03:34:19;;;;;;;8.30;5.53;;;;;;;14.79;56.30;99372.13;5071727;28;20503;-56
2023/01/16 03:36:54;;;;;;;9.38;5.78;;;;;;;14.80;56.39;99371.13;5071702;28;20063;-57
2023/01/16 03:39:27;;;;;;;8.07;5.43;;;;;;;14.77;56.26;99375.94;5071677;28;20094;-56
2023/01/16 03:42:06;;;;;;;8.32;5.63;;;;;;;14.76;56.07;99375.06;5071595;28;20041;-55
2023/01/16 03:44:38;;;;;;;7.88;5.25;;;;;;;14.72;56.37;99357.56;5071730;28;20076;-56
2023/01/16 03:47:10;;;;;;;7.80;5.25;;;;;;;14.72;56.51;99344.16;5071520;28;20098;-57
2023/01/16 03:49:43;;;;;;;7.43;5.37;;;;;;;14.72;56.48;99352.19;5071685;28;20413;-57
2023/01/16 03:52:16;;;;;;;8.75;5.68;;;;;;;14.70;56.44;99348.81;5071600;28;20401;-56
2023/01/16 03:54:48;;;;;;;;;;;;;;;14.70;56.67;99343.44;5072072;28;20049;-56
2023/01/16 03:57:21;;;;;;;8.10;5.30;;;;;;;14.68;56.58;99344.59;5071523;28;19928;-57
2023/01/16 03:59:51;;;;;;;8.95;5.53;;;;;;;14.67;56.68;99343.75;5071504;28;20051;-55
2023/01/16 04:02:24;;;;;;;8.02;5.47;;;;;;;14.64;56.79;99327.88;5071430;28;20401;-56
2023/01/16 04:05:00;;;;;;;8.02;5.53;;;;;;;14.65;56.61;99329.59;5071406;28;20041;-56
2023/01/16 04:07:34;;;;;;;9.75;6.10;;;;;;;14.65;56.61;99332.28;5071378;28;20064;-55
2023/01/16 04:10:06;;;;;;;7.85;5.40;;;;;;;14.61;56.62;99328.19;5071237;28;20048;-56
2023/01/16 04:12:38;;;;;;;8.73;5.82;;;;;;;14.61;56.43;99328.19;5069570;28;20102;-55
2023/01/16 04:15:09;;;;;;;7.97;5.40;;;;;;;14.58;56.79;99312.38;5071304;28;20493;-55
2023/01/16 04:17:40;;;;;;;8.38;5.78;;;;;;;14.60;56.79;99310.38;5071196;28;20052;-55
2023/01/16 04:20:10;;;;;;;8.38;5.85;;;;;;;14.56;56.86;99299.06;5071387;28;20049;-56
2023/01/16 04:22:40;;;;;;;7.22;5.25;;;;;;;14.56;56.47;99299.06;5071190;28;20072;-55
2023/01/16 04:25:10;;;;;;;8.07;5.85;;;;;;;14.56;56.60;99295.53;5071181;28;20052;-56
2023/01/16 04:27:38;;;;;;;8.80;5.95;;;;;;;14.56;56.88;99290.16;5071096;28;20132;-56
2023/01/16 04:30:07;;;;;;;8.65;5.68;;;;;;;14.54;56.47;99289.47;5071216;28;20044;-56
2023/01/16 04:32:35;;;;;;;8.30;5.60;;;;;;;14.51;56.87;99277.19;5071217;28;20098;-56
2023/01/16 04:35:04;;;;;;;7.60;5.25;;;;;;;14.50;56.90;99272.81;5071703;28;20060;-56
2023/01/16 04:37:33;;;;;;;7.70;5.22;;;;;;;14.50;56.90;99269.28;5073478;28;20135;-56
2023/01/16 04:40:03;;;;;;;7.68;4.82;;;;;;;14.52;56.97;99272.66;5074787;28;20386;-58
2023/01/16 04:42:31;;;;;;;8.25;5.45;;;;;;;14.57;57.29;99281.13;5074696;28;20124;-57
2023/01/16 04:44:59;;;;;;;6.85;4.72;;;;;;;14.62;57.48;99284.25;5074618;28;20041;-57
2023/01/16 04:47:27;;;;;;;6.55;4.57;;;;;;;14.69;57.76;99277.34;5074581;28;20072;-57
2023/01/16 04:49:55;;;;;;;7.70;4.55;;;;;;;14.83;57.74;99274.19;5074558;28;20503;-56
2023/01/16 04:52:23;;;;;;;7.65;4.78;;;;;;;14.96;57.73;99267.69;5074438;28;20045;-57
2023/01/16 04:54:51;;;;;;;8.00;4.90;;;;;;;15.04;57.50;99259.75;5074403;28;20499;-58
2023/01/16 04:57:21;;;;;;;6.45;4.60;;;;;;;15.15;57.53;99259.56;5074403;28;20124;-55
2023/01/16 04:59:49;;;;;;;7.20;4.55;;;;;;;15.27;57.32;99247.69;5074394;28;20055;-57
2023/01/16 05:02:17;;;;;;;7.18;4.47;;;;;;;15.37;57.22;99253.88;5074283;28;20052;-57
2023/01/16 05:04:46;;;;;;;7.03;4.65;;;;;;;15.48;57.12;99252.00;5074344;28;20102;-56
2023/01/16 05:07:14;;;;;;;7.10;4.50;;;;;;;15.57;57.02;99234.97;5072927;28;20106;-57
2023/01/16 05:09:42;;;;;;;7.13;4.60;;;;;;;15.66;56.87;99234.13;5074207;28;20079;-57
2023/01/16 05:12:10;;;;;;;6.45;4.22;;;;;;;15.80;56.66;99247.06;5074083;28;20482;-56
2023/01/16 05:14:40;;;;;;;6.55;4.20;;;;;;;15.89;56.63;99238.09;5072575;28;20048;-57
2023/01/16 05:17:08;;;;;;;6.50;4.30;;;;;;;15.96;56.53;99231.13;5074223;28;20078;-55
2023/01/16 05:19:36;;;;;;;7.43;4.90;;;;;;;16.01;56.35;99236.88;5074189;28;20071;-56
2023/01/16 05:22:04;;;;;;;7.18;4.57;;;;;;;16.07;56.33;99226.53;5073925;28;20044;-56
2023/01/16 05:24:32;;;;;;;6.95;4.63;;;;;;;16.08;56.39;99228.22;5073783;28;20374;-56
2023/01/16 05:27:00;;;;;;;7.18;4.60;;;;;;;16.09;56.33;99232.59;5073663;28;20685;-55
2023/01/16 05:29:28;;;;;;;6.65;4.50;;;;;;;16.07;56.39;99231.91;5073686;28;20048;-55
2023/01/16 05:31:58;;;;;;;7.03;4.63;;;;;;;16.07;56.47;99229.22;5073661;28;20080;-56
2023/01/16 05:34:26;;;;;;;6.90;4.65;;;;;;;16.08;56.38;99233.59;5073493;28;20094;-56
2023/01/16 05:36:54;;;;;;;7.55;4.78;;;;;;;16.06;56.39;99240.97;5073587;28;20081;-57
2023/01/16 05:39:22;;;;;;;7.18;4.93;;;;;;;16.04;56.54;99233.06;5073577;28;20460;-58
2023/01/16 05:41:50;;;;;;;7.50;4.82;;;;;;;16.02;56.41;99238.59;5073520;28;20079;-55
2023/01/16 05:44:19;;;;;;;7.25;4.57;;;;;;;16.00;56.48;99232.50;5073422;28;20049;-57
2023/01/16 05:46:47;;;;;;;7.43;5.00;;;;;;;15.99;56.41;99246.94;5073632;28;20051;-56
2023/01/16 05:49:16;;;;;;;7.95;4.88;;;;;;;15.96;56.47;99244.56;5073378;28;20495;-57
2023/01/16 05:51:45;;;;;;;8.50;5.72;;;;;;;15.95;56.48;99239.34;5073260;28;20052;-56
2023/01/16 05:54:13;;;;;;;7.25;5.15;;;;;;;15.92;56.29;99229.75;5073173;28;20155;-56
2023/01/16 05:56:42;;;;;;;8.20;5.32;;;;;;;15.90;56.49;99234.41;5072809;28;20052;-57
2023/01/16 05:59:11;;;;;;;7.93;5.47;;;;;;;15.85;56.67;99234.03;5071775;28;20139;-58
2023/01/16 06:01:39;;;;;;;7.82;5.18;;;;;;;15.85;56.41;99233.19;5072876;28;20051;-57
2023/01/16 06:04:07;;;;;;;7.13;5.38;;;;;;;15.83;56.45;99248.63;5072990;28;20119;-58
2023/01/16 06:06:36;;;;;;;7.90;5.72;;;;;;;15.79;56.38;99242.69;5072853;28;20041;-57
2023/01/16 06:09:05;;;;;;;8.35;5.63;;;;;;;15.77;56.41;99244.69;5072667;28;20070;-57
2023/01/16 06:11:33;;;;;;;7.70;5.57;;;;;;;15.73;56.40;99241.44;5072689;28;20052;-56
2023/01/16 06:14:03;;;;;;;8.48;5.60;;;;;;;15.69;56.45;99228.44;5072757;28;20489;-57
2023/01/16 06:16:35;;;;;;;7.68;5.55;;;;;;;15.68;56.32;99232.13;5071307;28;20044;-57
2023/01/16 06:19:03;;;;;;;9.13;6.00;;;;;;;15.64;56.59;99231.59;5072751;28;20056;-57
2023/01/16 06:21:32;;;;;;;7.53;5.30;;;;;;;15.63;56.57;99234.41;5072668;28;20051;-56
2023/01/16 06:24:01;;;;;;;8.32;5.85;;;;;;;15.59;56.48;99238.38;5072717;28;20135;-55
2023/01/16 06:26:29;;;;;;;8.60;5.72;;;;;;;15.56;56.52;99238.66;5071269;28;20083;-57
2023/01/16 06:28:57;;;;;;;9.63;6.30;;;;;;;15.51;56.53;99224.81;5072276;28;20048;-57
2023/01/16 06:31:25;;;;;;;9.52;6.50;;;;;;;15.52;56.40;99216.59;5072238;28;20055;-57
2023/01/16 06:33:54;;;;;;;10.05;6.28;;;;;;;15.49;56.41;99216.06;5072074;28;20453;-57
2023/01/16 06:36:22;;;;;;;9.20;6.30;;;;;;;15.46;56.38;99211.84;5071800;28;20052;-57
2023/01/16 06:38:50;;;;;;;9.45;6.97;;;;;;;15.43;56.46;99206.75;5072172;28;20048;-57
2023/01/16 06:41:22;;;;;;;9.55;6.82;;;;;;;15.41;56.41;99206.91;5071814;28;20105;-56
2023/01/16 06:43:50;;;;;;;10.20;7.15;;;;;;;15.36;56.37;99209.19;5071833;28;20072;-56
2023/01/16 06:46:19;;;;;;;10.85;7.47;;;;;;;15.35;56.20;99207.50;5071792;28;20052;-56
2023/01/16 06:48:47;;;;;;;10.35;6.72;;;;;;;15.33;56.29;99206.78;5071716;28;20041;-55
2023/01/16 06:51:16;;;;;;;9.15;6.32;;;;;;;15.30;56.36;99195.50;5071566;28;20044;-57
2023/01/16 06:53:44;;;;;;;10.07;6.68;;;;;;;15.29;56.53;99199.19;5071718;28;20073;-57
2023/01/16 06:56:12;;;;;;;11.75;7.57;;;;;;;15.27;56.36;99202.03;5071575;28;20087;-56
2023/01/16 06:58:42;;;;;;;9.65;7.05;;;;;;;15.24;56.15;99206.81;5071272;28;20055;-55
2023/01/16 07:01:10;;;;;;;10.50;7.45;;;;;;;15.24;56.24;99202.28;5070227;28;20644;-57
2023/01/16 07:03:39;;;;;;;10.93;7.47;;;;;;;15.20;56.30;99200.91;5071559;28;20048;-57
2023/01/16 07:06:07;;;;;;;9.10;6.78;;;;;;;15.18;56.22;99202.91;5071570;28;20040;-57
2023/01/16 07:08:35;;;;;;;12.05;8.75;;;;;;;15.16;55.98;99210.28;5071519;28;20076;-57
2023/01/16 07:11:03;;;;;;;9.48;6.60;;;;;;;15.11;56.29;99202.63;5071569;28;20080;-57
2023/01/16 07:13:35;;;;;;;9.70;6.82;;;;;;;15.11;56.22;99191.03;5071161;28;20072;-57
2023/01/16 07:24:22;;;;;;;13.13;8.10;;;;;;;15.05;56.01;99213.09;5071438;28;20041;-56
2023/01/16 07:26:54;;;;;;;9.30;6.22;;;;;;;15.03;56.02;99215.94;5069720;28;20040;-57
2023/01/16 07:29:22;;;;;;;10.35;7.10;;;;;;;15.00;56.26;99201.97;5068829;28;20052;-53
2023/01/16 07:31:52;;;;;;;9.25;6.32;;;;;;;14.98;56.87;99204.81;5069485;28;20583;-54
2023/01/16 07:34:22;;;;;;;11.10;7.75;;;;;;;14.97;56.61;99196.91;5070617;28;20048;-56
2023/01/16 07:36:50;;;;;;;8.88;6.53;;;;;;;14.91;56.68;99192.09;5069432;28;20056;-56
2023/01/16 07:39:18;;;;;;;11.07;7.50;;;;;;;14.91;56.57;99195.63;5069067;28;20132;-56
2023/01/16 07:41:48;;;;;;;11.23;7.13;;;;;;;14.93;56.44;99200.84;5069188;28;20048;-56
2023/01/16 07:44:25;;;;;;;10.80;7.50;;;;;;;14.91;56.36;99184.03;5063282;28;20123;-55
2023/01/16 07:46:55;;;;;;;10.98;6.72;;;;;;;14.88;56.54;99175.28;5050547;28;20064;-56
2023/01/16 07:49:23;;;;;;;10.93;7.60;;;;;;;14.86;56.48;99173.72;5082687;28;20068;-57
2023/01/16 07:51:51;;;;;;;9.93;6.50;;;;;;;14.86;56.70;99165.66;5050166;28;20077;-58
2023/01/16 07:54:21;;;;;;;11.48;7.75;;;;;;;14.83;56.43;99153.41;5050668;28;20060;-56
2023/01/16 07:56:49;;;;;;;10.43;6.85;;;;;;;14.80;56.55;99159.06;5061704;28;20517;-58
2023/01/16 07:59:17;;;;;;;10.10;7.20;;;;;;;14.80;56.69;99156.38;5061183;28;20053;-56
2023/01/16 08:01:46;;;;;;;9.80;6.55;;;;;;;14.78;56.61;99153.00;5070294;28;20048;-55
2023/01/16 08:04:16;;;;;;;11.43;7.55;;;;;;;14.78;56.31;99144.09;5070355;28;20161;-57
2023/01/16 08:06:44;;;;;;;12.07;7.10;;;;;;;14.74;56.10;99132.78;5070934;28;20044;-55
2023/01/16 08:09:13;;;;;;;14.75;8.65;;;;;;;14.73;56.22;99127.56;5070883;28;20044;-55
2023/01/16 08:11:46;;;;;;;11.65;7.57;;;;;;;14.68;56.07;99113.75;5074248;28;20060;-55
2023/01/16 08:14:15;;;;;;;12.73;8.43;;;;;;;14.70;56.05;99112.63;5074878;28;20104;-54
2023/01/16 08:16:43;;;;;;;11.93;7.93;;;;;;;14.71;56.02;99110.78;5074423;28;20120;-55
2023/01/16 08:19:11;;;;;;;12.98;8.23;;;;;;;14.70;56.22;99095.66;5074541;28;20060;-55
2023/01/16 08:21:41;;;;;;;10.77;7.03;;;;;;;14.67;56.64;99086.09;5074667;28;20044;-55
2023/01/16 08:24:12;;;;;;;12.85;8.43;;;;;;;14.66;56.19;99088.88;5074535;28;20552;-54
2023/01/16 08:26:41;;;;;;;11.57;8.13;;;;;;;14.65;56.51;99081.81;5073289;28;20048;-58
2023/01/16 08:29:10;;;;;;;12.18;8.57;;;;;;;14.65;56.43;99076.47;5074326;28;20051;-57
2023/01/16 08:31:38;;;;;;;13.82;9.35;;;;;;;14.60;56.06;99079.59;5106773;28;20057;-57
2023/01/16 08:34:06;;;;;;;9.77;7.05;;;;;;;14.58;56.25;99066.34;5074381;28;20406;-54
2023/01/16 08:36:34;;;;;;;9.77;7.00;;;;;;;14.61;56.56;99073.25;5072727;28;20151;-56
2023/01/16 08:39:04;;;;;;;12.60;8.23;;;;;;;14.59;56.83;99067.19;5074219;28;20072;-57
2023/01/16 08:52:38;;;;;;;11.00;7.20;;;;;;;14.52;56.64;99034.72;5073792;28;20052;-58
2023/01/16 08:55:09;;;;;;;12.88;8.05;;;;;;;14.49;56.50;99031.47;5074204;28;20041;-55
2023/01/16 08:57:37;;;;;;;10.48;6.70;;;;;;;14.50;56.39;99030.50;5073902;28;20053;-55
2023/01/16 09:00:07;;;;;;;13.27;8.10;;;;;;;14.46;56.56;99012.97;5074351;28;20048;-55
2023/01/16 09:02:36;;;;;;;10.88;7.47;;;;;;;14.48;56.66;99021.75;5073713;28;20044;-55
2023/01/16 09:05:05;;;;;;;11.90;7.60;;;;;;;14.43;56.78;99007.88;5074352;28;20047;-56
2023/01/16 09:07:33;;;;;;;9.30;6.60;;;;;;;14.40;57.16;99009.03;5072362;28;20074;-56
2023/01/16 09:10:02;;;;;;;10.48;7.35;;;;;;;14.39;56.74;99001.97;5073717;28;20045;-58
2023/01/16 09:15:20;;;;;;;11.38;7.15;;;;;;;14.37;56.70;98987.00;5073635;28;20040;-57
2023/01/16 09:17:48;;;;;;;9.60;6.50;;;;;;;14.36;56.54;98977.25;5072265;28;20075;-56
2023/01/16 09:20:17;;;;;;;12.75;7.72;;;;;;;14.33;56.76;98970.34;5073698;28;20194;-57
2023/01/16 09:22:45;;;;;;;11.82;7.88;;;;;;;14.31;56.89;98962.47;5073216;28;20044;-55
2023/01/16 09:25:13;;;;;;;10.73;7.43;;;;;;;14.32;57.09;98964.16;5073515;28;20512;-57
2023/01/16 09:27:46;;;;;;;11.18;7.63;;;;;;;14.32;57.19;98955.25;5073242;28;20052;-57
2023/01/16 09:30:14;;;;;;;11.73;7.53;;;;;;;14.32;57.27;98942.69;5072058;28;20045;-57
2023/01/16 09:32:45;;;;;;;11.25;7.55;;;;;;;14.32;57.03;98940.00;5073310;28;20097;-57
2023/01/16 09:35:16;;;;;;;10.07;5.75;;;;;;;14.31;57.09;98930.28;5073254;28;20062;-55
2023/01/16 09:37:45;;;;;;;12.48;8.30;;;;;;;14.29;56.95;98924.22;5072912;28;20040;-57
2023/01/16 09:40:16;;;;;;;12.48;8.30;;;;;;;14.30;57.18;98922.38;5073082;28;20098;-55
2023/01/16 09:45:48;;;;;;;9.88;6.90;;;;;;;14.26;57.25;98895.00;5073048;28;20048;-56
2023/01/16 09:48:24;;;;;;;10.73;7.15;;;;;;;14.25;57.18;98887.94;5071585;28;20106;-57
2023/01/16 09:50:56;;;;;;;11.02;6.85;;;;;;;14.25;57.02;98884.41;5071603;28;20048;-56
2023/01/16 09:59:36;;;;;;;11.48;7.22;;;;;;;14.23;57.19;98860.44;5070186;28;20398;-56
2023/01/16 10:02:18;;;;;;;10.32;7.13;;;;;;;14.22;57.39;98866.81;5072788;28;20381;-57
2023/01/16 10:04:47;;;;;;;10.68;7.18;;;;;;;14.21;57.37;98858.91;5072746;28;20044;-57
2023/01/16 10:07:46;;;;;;;13.48;8.13;;;;;;;14.18;57.19;98843.94;5072488;28;20044;-55
2023/01/16 10:10:40;;;;;;;10.38;6.45;;;;;;;14.18;57.41;98843.94;5072557;28;20048;-54
2023/01/16 10:13:26;;;;;;;12.30;7.82;;;;;;;14.19;57.40;98834.94;5063723;28;20091;-56
2023/01/16 10:16:12;;;;;;;10.82;7.18;;;;;;;14.19;57.26;98836.78;5072325;28;20552;-57
2023/01/16 10:18:51;;;;;;;10.30;6.57;;;;;;;14.18;57.50;98829.69;5072294;28;20052;-56
2023/01/16 10:21:52;;;;;;;12.65;8.18;;;;;;;14.16;57.51;98819.13;5072509;28;20047;-55
2023/01/16 10:24:34;;;;;;;11.13;7.50;;;;;;;14.15;57.56;98816.59;5070569;28;20094;-56
2023/01/16 10:27:13;;;;;;;12.20;7.50;;;;;;;14.14;57.44;98807.69;5072136;28;20064;-57
2023/01/16 10:29:47;;;;;;;12.25;7.28;;;;;;;14.14;57.36;98799.66;5072149;28;20046;-57
2023/01/16 10:32:24;;;;;;;10.35;6.65;;;;;;;14.12;57.59;98796.28;5071758;28;20058;-56
2023/01/16 10:35:00;;;;;;;11.80;7.65;;;;;;;14.13;57.35;98781.03;5071920;28;20086;-55
2023/01/16 10:37:29;;;;;;;9.75;6.60;;;;;;;14.13;57.74;98786.41;5071995;28;20094;-55
2023/01/16 10:39:59;;;;;;;12.30;7.47;;;;;;;14.12;57.50;98774.84;5072015;28;20086;-56
2023/01/16 10:50:58;;;;;;;11.68;7.07;;;;;;;14.08;57.85;98757.34;5070421;28;20045;-57
2023/01/16 10:53:27;;;;;;;10.85;6.57;;;;;;;14.06;57.75;98753.97;5071572;28;20044;-58
2023/01/16 10:55:56;;;;;;;10.82;6.60;;;;;;;14.07;57.62;98739.59;5071781;28;20068;-57
2023/01/16 10:58:27;;;;;;;12.95;7.88;;;;;;;14.08;57.85;98737.75;5071433;28;20048;-55
2023/01/16 11:01:00;;;;;;;10.45;6.85;;;;;;;14.06;57.77;98729.00;5071633;28;20102;-56
2023/01/16 11:03:34;;;;;;;10.82;6.88;;;;;;;14.07;57.68;98723.50;5070348;28;20053;-56
2023/01/16 11:06:13;;;;;;;10.15;6.30;;;;;;;14.06;57.73;98716.44;5071518;28;20282;-57
2023/01/16 11:08:43;;;;;;;10.48;7.03;;;;;;;14.03;57.74;98709.56;5070625;28;20140;-56
2023/01/16 11:19:46;;;;;;;10.60;6.68;;;;;;;14.01;57.90;98684.75;5071586;28;20079;-56
2023/01/16 11:22:25;;;;;;;11.55;7.20;;;;;;;14.03;57.92;98687.28;5070142;28;20071;-57
2023/01/16 11:24:57;;;;;;;12.20;7.07;;;;;;;14.01;57.79;98674.03;5071498;28;20462;-56
2023/01/16 11:27:28;;;;;;;11.93;7.57;;;;;;;14.01;57.85;98676.72;5070003;28;20056;-56
2023/01/16 11:29:58;;;;;;;11.60;7.50;;;;;;;14.01;57.82;98667.81;5071555;28;20129;-56
2023/01/16 11:32:28;;;;;;;10.77;6.70;;;;;;;13.99;57.95;98651.91;5071400;28;20492;-56
2023/01/16 11:34:59;;;;;;;12.23;7.10;;;;;;;13.99;57.92;98649.22;5071527;28;20068;-55
2023/01/16 11:37:30;;;;;;;12.55;7.38;;;;;;;13.97;57.89;98648.50;5070214;28;20060;-56
2023/01/16 11:40:03;;;;;;;12.00;7.72;;;;;;;13.97;58.00;98636.94;5071580;28;20456;-57
2023/01/16 11:48:24;;;;;;;11.38;6.50;;;;;;;13.96;58.05;98629.91;5075629;28;20440;-56
2023/01/16 11:50:56;;;;;;;11.23;6.80;;;;;;;13.95;58.00;98618.34;5075715;28;20127;-54
2023/01/16 11:53:31;;;;;;;11.80;7.15;;;;;;;13.95;57.90;98617.50;5075582;28;20040;-58
2023/01/16 11:56:22;;;;;;;10.93;6.55;;;;;;;13.95;57.88;98604.09;5074171;28;20456;-57
2023/01/16 11:59:06;;;;;;;9.35;6.75;;;;;;;13.92;58.05;98596.38;5072916;28;20060;-58
2023/01/16 12:04:35;;;;;;;11.02;6.57;;;;;;;13.92;57.98;98586.47;5075103;28;20040;-57
2023/01/16 12:07:15;;;;;;;12.50;7.20;;;;;;;13.91;58.04;98579.44;5075277;28;20075;-56
2023/01/16 12:09:57;;;;;;;11.63;7.10;;;;;;;13.91;57.98;98567.88;5073929;28;20421;-57
2023/01/16 12:15:24;;;;;;;11.93;7.13;;;;;;;13.90;57.86;98555.47;5075083;28;20060;-55
2023/01/16 12:18:13;;;;;;;10.65;6.82;;;;;;;13.89;57.77;98548.41;5075158;28;20094;-56
2023/01/16 12:20:50;;;;;;;11.73;7.15;;;;;;;13.88;57.65;98536.84;5074936;28;20048;-57
2023/01/16 12:23:55;;;;;;;11.52;7.00;;;;;;;13.83;58.05;98517.72;5074723;28;20075;-56
2023/01/16 12:26:29;;;;;;;11.80;7.03;;;;;;;13.87;58.00;98529.81;5074958;28;20048;-57
2023/01/16 12:29:12;;;;;;;10.20;6.60;;;;;;;13.86;58.05;98521.94;5074475;28;20056;-57
2023/01/16 12:31:56;;;;;;;10.90;7.05;;;;;;;13.86;57.98;98516.56;5073323;28;20136;-57
2023/01/16 12:34:41;;;;;;;10.02;6.45;;;;;;;13.81;58.03;98503.66;5074694;28;20053;-56
2023/01/16 12:37:21;;;;;;;11.02;7.00;;;;;;;13.83;58.03;98506.16;5074621;28;20045;-57
2023/01/16 12:40:00;;;;;;;13.73;7.82;;;;;;;13.81;57.99;98509.00;5074555;28;20053;-56
2023/01/16 12:45:39;;;;;;;11.75;6.97;;;;;;;13.83;58.07;98496.28;5073087;28;20056;-57
2023/01/16 12:48:28;;;;;;;12.57;7.88;;;;;;;13.82;58.07;98485.72;5073091;28;20052;-57
2023/01/16 12:51:09;;;;;;;11.80;7.50;;;;;;;13.81;57.97;98476.00;5074441;28;20145;-57
2023/01/16 12:54:13;;;;;;;12.63;7.85;;;;;;;13.81;58.03;98476.00;5074690;28;20458;-58
2023/01/16 12:56:58;;;;;;;10.77;6.47;;;;;;;13.79;58.11;98469.94;5065175;28;20071;-58
2023/01/16 12:59:32;;;;;;;10.75;6.78;;;;;;;13.79;58.15;98472.63;5074215;28;20055;-57
2023/01/16 13:02:14;;;;;;;12.77;7.40;;;;;;;13.80;58.19;98474.28;5074436;28;20079;-56
2023/01/16 13:04:45;;;;;;;10.90;7.25;;;;;;;13.79;58.22;98469.94;5074278;28;20075;-59